Wolf Creek, Montana
Current Conditions -  °F | °C
As of 7:53 PM on Tuesday 21 Oct 2014 (Local Time) from KHLN Reporting Station
Broken Clouds Broken Clouds  
Wind Chill: 44°   Ceiling: 5000
Heat Index: 48°   Visibility: 10mi
Dew Point: 36°   Wind: 9mph
Humidity: 63%   Direction: 250°WSW
Pressure: 29.96"   Gusts: 20mph
Location:  47°N, 112.08°W
Report Text: KHLN 220153Z 25008G17KT 10SM SCT043 BKN050 BKN110 09/02 A2996 RMK AO2 SLP159 T00890022
Loading
Personal Weather Stations






























Interactive Weather Map
Tropical Storm Tracking
New forecast layout! Learn more

10-Day Weather Forecast

Advertisements
Track Severe Weather on mobile